Time;durP1;ratioP1;P1;durP2;ratioP2;P2;SDS_P1;SDS_P2;PMS_P1;PMS_P2;Temp;Humidity;BMP_temperature;BMP_pressure;BME280_temperature;BME280_humidity;BME280_pressure;Samples;Min_cycle;Max_cycle;Signal;HPM_P1;HPM_P2
2022/03/06 00:00:13;;;;;;;7.55;5.35;;;16.00;37.60;15.20;102034.00;;;;5058394;28;20384;-73
2022/03/06 00:02:59;;;;;;;8.55;4.80;;;16.00;37.30;15.20;102040.00;;;;5049759;28;20068;-73
2022/03/06 00:05:45;;;;;;;7.25;5.00;;;16.00;37.30;15.20;102050.00;;;;5063082;28;20132;-73
2022/03/06 00:08:31;;;;;;;9.15;5.60;;;16.00;37.30;15.20;102048.00;;;;5057921;28;20443;-73
2022/03/06 00:11:17;;;;;;;9.57;5.85;;;16.00;38.10;15.10;102035.00;;;;5062970;28;20056;-74
2022/03/06 00:14:03;;;;;;;5.65;4.55;;;16.00;37.30;15.10;102044.00;;;;5056509;28;20040;-73
2022/03/06 00:16:51;;;;;;;7.25;5.75;;;16.00;37.30;15.10;102044.00;;;;5058439;28;20047;-74
2022/03/06 00:19:38;;;;;;;6.53;4.70;;;16.00;37.30;15.10;102046.00;;;;5064219;28;20042;-73
2022/03/06 00:22:24;;;;;;;7.43;4.95;;;15.90;37.30;15.10;102052.00;;;;5057889;28;20106;-73
2022/03/06 00:25:10;;;;;;;6.88;4.57;;;15.90;37.30;15.10;102047.00;;;;5060153;28;20041;-73
2022/03/06 00:27:56;;;;;;;7.32;5.28;;;15.90;37.30;15.10;102046.00;;;;5052347;28;20039;-74
2022/03/06 00:30:42;;;;;;;8.05;5.28;;;15.90;37.30;15.10;102042.00;;;;5060844;28;20058;-73
2022/03/06 00:33:28;;;;;;;6.82;4.68;;;15.90;37.30;15.10;102044.00;;;;5058683;28;20043;-74
2022/03/06 00:36:14;;;;;;;5.45;4.50;;;15.70;37.20;15.10;102044.00;;;;5061982;28;20044;-73
2022/03/06 00:39:00;;;;;;;8.07;5.32;;;15.90;37.30;15.10;102050.00;;;;5035627;28;20124;-73
2022/03/06 00:41:47;;;;;;;6.95;5.47;;;15.90;37.30;15.00;102047.00;;;;5061556;28;20094;-73
2022/03/06 00:44:33;;;;;;;6.40;5.13;;;15.90;37.40;15.00;102039.00;;;;5048797;28;20426;-73
2022/03/06 00:47:19;;;;;;;7.38;4.97;;;15.90;37.40;15.00;102044.00;;;;5047882;28;20037;-73
2022/03/06 00:50:05;;;;;;;8.00;5.40;;;15.80;37.30;15.00;102041.00;;;;5059547;28;20063;-73
2022/03/06 00:52:52;;;;;;;8.25;5.15;;;15.80;37.40;15.00;102047.00;;;;5057640;28;20037;-73
2022/03/06 00:55:38;;;;;;;9.35;5.63;;;15.80;37.30;15.00;102051.00;;;;5057649;28;20502;-73
2022/03/06 00:58:24;;;;;;;6.43;5.40;;;15.90;37.40;15.00;102052.00;;;;5059031;28;20106;-73
2022/03/06 01:01:11;;;;;;;6.65;5.05;;;15.80;37.30;15.00;102052.00;;;;5043757;28;20048;-73
2022/03/06 01:03:57;;;;;;;6.40;5.13;;;15.90;37.40;15.00;102049.00;;;;5056155;28;20554;-73
2022/03/06 01:06:43;;;;;;;7.97;5.60;;;15.80;37.30;15.00;102050.00;;;;5044826;28;20033;-73
2022/03/06 01:09:29;;;;;;;7.95;5.55;;;15.80;37.30;15.00;102046.00;;;;5064518;28;20387;-74
2022/03/06 01:12:15;;;;;;;7.03;5.22;;;15.80;37.30;15.00;102057.00;;;;5059395;28;20040;-73
2022/03/06 01:15:01;;;;;;;6.82;5.28;;;15.80;37.30;15.00;102058.00;;;;5059612;28;20048;-73
2022/03/06 01:17:50;;;;;;;7.13;5.30;;;15.80;37.30;15.00;102054.00;;;;5056484;28;20048;-73
2022/03/06 01:20:37;;;;;;;6.95;5.25;;;15.80;37.30;14.90;102061.00;;;;5057232;28;20081;-73
2022/03/06 01:23:23;;;;;;;6.63;5.00;;;15.80;37.30;14.90;102061.00;;;;5048998;28;20048;-74
2022/03/06 01:26:09;;;;;;;7.20;5.53;;;15.80;37.40;14.90;102058.00;;;;5058745;28;20033;-73
2022/03/06 01:28:55;;;;;;;7.07;5.03;;;15.80;37.40;14.90;102059.00;;;;5061977;28;20028;-73
2022/03/06 01:31:41;;;;;;;7.55;5.18;;;15.70;38.00;14.90;102065.00;;;;5057875;28;20077;-73
2022/03/06 01:34:27;;;;;;;7.15;4.93;;;15.80;37.40;14.90;102062.00;;;;5049615;28;20033;-73
2022/03/06 01:37:13;;;;;;;7.60;5.45;;;15.70;37.40;14.90;102067.00;;;;5057619;28;20097;-73
2022/03/06 01:39:59;;;;;;;6.05;5.00;;;15.80;37.40;14.90;102071.00;;;;5057217;28;20040;-73
2022/03/06 01:42:47;;;;;;;6.93;5.18;;;15.70;37.30;14.90;102065.00;;;;5064321;28;20037;-73
2022/03/06 01:45:33;;;;;;;6.85;5.00;;;15.80;37.40;14.90;102069.00;;;;5057492;28;20255;-73
2022/03/06 01:48:19;;;;;;;9.10;5.20;;;15.70;37.40;14.90;102076.00;;;;5049309;28;20040;-73
2022/03/06 01:51:05;;;;;;;7.53;5.60;;;15.70;37.40;14.90;102075.00;;;;5061158;28;20033;-73
2022/03/06 01:53:51;;;;;;;7.78;5.85;;;15.70;37.30;14.90;102084.00;;;;5061072;28;20113;-73
2022/03/06 01:56:37;;;;;;;6.85;5.20;;;15.70;37.30;14.90;102079.00;;;;5062368;28;20036;-73
2022/03/06 01:59:23;;;;;;;5.13;4.63;;;15.70;38.10;14.90;102081.00;;;;5054799;28;20482;-73
2022/03/06 02:02:09;;;;;;;5.63;4.63;;;15.70;37.40;14.90;102084.00;;;;5061937;28;20044;-73
2022/03/06 02:04:56;;;;;;;7.10;5.00;;;15.70;37.40;14.90;102077.00;;;;5064450;28;20048;-73
2022/03/06 02:07:42;;;;;;;6.45;4.75;;;15.70;37.40;14.80;102065.00;;;;5057405;28;20520;-74
2022/03/06 02:10:28;;;;;;;7.05;5.38;;;15.70;37.40;14.80;102070.00;;;;5041949;28;20495;-73
2022/03/06 02:13:14;;;;;;;5.60;4.43;;;15.70;37.30;14.80;102079.00;;;;5057665;28;20045;-73
2022/03/06 02:16:00;;;;;;;7.35;5.65;;;15.70;37.30;14.80;102062.00;;;;5061279;28;20041;-73
2022/03/06 02:18:46;;;;;;;6.45;4.50;;;15.70;37.40;14.80;102071.00;;;;5038929;28;20045;-73
2022/03/06 02:21:33;;;;;;;6.85;5.30;;;15.70;37.40;14.80;102075.00;;;;5039894;28;20196;-73
2022/03/06 02:24:19;;;;;;;5.88;4.68;;;15.70;37.40;14.80;102065.00;;;;5058086;28;20044;-73
2022/03/06 02:27:05;;;;;;;5.90;5.00;;;15.70;37.40;14.80;102068.00;;;;5060240;28;20041;-74
2022/03/06 02:29:51;;;;;;;7.55;5.45;;;15.60;37.30;14.80;102067.00;;;;5054212;28;20040;-73
2022/03/06 02:32:38;;;;;;;6.70;5.10;;;15.70;38.10;14.80;102066.00;;;;5046519;28;20041;-73
2022/03/06 02:35:25;;;;;;;6.25;5.38;;;15.60;37.30;14.80;102067.00;;;;5041024;28;20072;-73
2022/03/06 02:38:11;;;;;;;6.45;4.82;;;15.60;37.30;14.70;102071.00;;;;5047957;28;20486;-73
2022/03/06 02:40:57;;;;;;;8.25;5.13;;;15.60;37.30;14.70;102071.00;;;;5056739;28;20041;-73
2022/03/06 02:43:43;;;;;;;5.82;4.65;;;15.60;37.40;14.70;102078.00;;;;5058225;28;20513;-73
2022/03/06 02:46:30;;;;;;;5.75;4.50;;;15.60;37.30;14.70;102069.00;;;;5062600;28;20056;-73
2022/03/06 02:49:17;;;;;;;6.57;4.97;;;15.50;37.30;14.70;102065.00;;;;5044576;28;20045;-73
2022/03/06 02:52:08;;;;;;;6.00;5.03;;;15.50;37.30;14.70;102072.00;;;;5060071;28;20040;-73
2022/03/06 02:54:54;;;;;;;5.45;4.80;;;15.50;37.30;14.70;102071.00;;;;5052238;28;20496;-73
2022/03/06 02:57:40;;;;;;;6.38;4.78;;;15.50;37.30;14.60;102066.00;;;;5059491;28;20037;-74
2022/03/06 03:00:26;;;;;;;6.40;5.13;;;15.50;37.30;14.60;102071.00;;;;5039335;28;20049;-73
2022/03/06 03:03:12;;;;;;;5.65;4.65;;;15.50;37.40;14.60;102067.00;;;;5059744;28;20478;-73
2022/03/06 03:05:58;;;;;;;7.22;4.80;;;15.50;37.30;14.60;102071.00;;;;5057974;28;20041;-73
2022/03/06 03:08:48;;;;;;;7.18;5.10;;;15.40;37.30;14.60;102063.00;;;;5054855;28;20466;-73
2022/03/06 03:11:34;;;;;;;7.88;4.97;;;15.50;37.40;14.60;102070.00;;;;5060287;28;20482;-74
2022/03/06 03:14:21;;;;;;;6.03;4.95;;;15.40;37.30;14.60;102067.00;;;;5060369;28;20083;-73
2022/03/06 03:17:07;;;;;;;5.25;4.63;;;15.40;37.30;14.60;102067.00;;;;5060302;28;20044;-73
2022/03/06 03:19:53;;;;;;;6.45;4.95;;;15.40;37.30;14.60;102065.00;;;;5055789;28;20099;-73
2022/03/06 03:22:39;;;;;;;5.60;4.65;;;15.40;37.30;14.60;102066.00;;;;5052979;28;20036;-73
2022/03/06 03:25:25;;;;;;;6.40;5.32;;;15.50;37.40;14.60;102070.00;;;;5059517;28;20106;-73
2022/03/06 03:28:11;;;;;;;5.03;4.45;;;15.40;37.30;14.60;102068.00;;;;5058226;28;20059;-73
2022/03/06 03:30:57;;;;;;;6.05;5.05;;;15.50;37.40;14.60;102066.00;;;;5058206;28;20033;-73
2022/03/06 03:33:43;;;;;;;6.03;5.03;;;15.40;37.30;14.60;102067.00;;;;5055892;28;20032;-73
2022/03/06 03:36:29;;;;;;;6.05;4.68;;;15.50;37.40;14.60;102074.00;;;;5049250;28;20048;-73
2022/03/06 03:39:15;;;;;;;5.90;4.72;;;15.40;37.30;14.60;102069.00;;;;5049415;28;20433;-73
2022/03/06 03:42:02;;;;;;;5.53;4.80;;;15.50;37.40;14.60;102079.00;;;;5060670;28;20032;-74
2022/03/06 03:44:48;;;;;;;5.32;4.78;;;15.50;37.40;14.60;102069.00;;;;5060499;28;20127;-73
2022/03/06 03:47:34;;;;;;;5.07;4.47;;;15.50;37.40;14.60;102067.00;;;;5065323;28;20040;-73
2022/03/06 03:50:20;;;;;;;5.65;4.90;;;15.50;37.40;14.60;102074.00;;;;5044163;28;20094;-73
2022/03/06 03:53:06;;;;;;;6.32;4.55;;;15.40;37.40;14.60;102075.00;;;;5053585;28;20401;-73
2022/03/06 03:55:52;;;;;;;5.80;4.80;;;15.40;37.40;14.50;102075.00;;;;5048703;28;20048;-73
2022/03/06 03:58:38;;;;;;;5.40;4.63;;;15.40;37.40;14.60;102071.00;;;;5048737;28;20101;-73
2022/03/06 04:01:25;;;;;;;5.93;4.53;;;15.40;37.40;14.50;102083.00;;;;5064308;28;20041;-73
2022/03/06 04:04:11;;;;;;;5.32;4.07;;;15.40;37.40;14.60;102082.00;;;;5043023;28;20086;-73
2022/03/06 04:06:57;;;;;;;5.45;4.30;;;15.40;37.40;14.50;102082.00;;;;5060647;28;20122;-73
2022/03/06 04:09:43;;;;;;;5.03;4.53;;;15.40;37.40;14.50;102079.00;;;;5050613;28;20409;-73
2022/03/06 04:12:29;;;;;;;4.97;4.47;;;15.40;37.30;14.50;102075.00;;;;5061089;28;20047;-74
2022/03/06 04:15:15;;;;;;;5.65;4.60;;;15.40;37.30;14.50;102092.00;;;;5047620;28;20045;-73
2022/03/06 04:18:02;;;;;;;6.05;4.43;;;15.40;38.00;14.50;102086.00;;;;5040970;28;20029;-73
2022/03/06 04:20:49;;;;;;;5.50;4.70;;;15.40;37.30;14.50;102077.00;;;;5045009;28;20032;-73
2022/03/06 04:23:35;;;;;;;6.43;4.90;;;15.40;37.30;14.50;102089.00;;;;5061400;28;20111;-73
2022/03/06 04:26:21;;;;;;;5.03;4.40;;;15.40;37.20;14.50;102092.00;;;;5059929;28;20048;-73
2022/03/06 04:29:07;;;;;;;5.13;4.30;;;15.40;37.30;14.50;102079.00;;;;5066967;28;20036;-73
2022/03/06 04:31:53;;;;;;;5.50;4.32;;;15.40;37.20;14.50;102088.00;;;;5057324;28;20078;-73
2022/03/06 04:34:39;;;;;;;5.30;4.50;;;15.40;37.20;14.40;102088.00;;;;5058448;28;20040;-73
2022/03/06 04:37:25;;;;;;;6.15;4.40;;;15.30;37.20;14.40;102087.00;;;;5061464;28;20106;-73
2022/03/06 04:40:11;;;;;;;5.25;4.55;;;15.40;37.30;14.40;102092.00;;;;5060317;28;20056;-73
2022/03/06 04:42:57;;;;;;;5.30;4.80;;;15.30;37.20;14.40;102096.00;;;;5058380;28;20420;-73
2022/03/06 04:45:43;;;;;;;6.20;5.05;;;15.30;37.20;14.40;102099.00;;;;5062365;28;20096;-73
2022/03/06 04:48:29;;;;;;;4.72;4.18;;;15.30;37.20;14.40;102110.00;;;;5062552;28;20036;-73
2022/03/06 04:51:16;;;;;;;5.20;4.13;;;15.30;37.30;14.40;102115.00;;;;5058488;28;20076;-73
2022/03/06 04:54:02;;;;;;;7.28;5.15;;;15.30;37.20;14.40;102114.00;;;;5050023;28;20040;-73
2022/03/06 04:56:48;;;;;;;6.13;4.60;;;15.30;37.20;14.40;102125.00;;;;5059840;28;20037;-73
2022/03/06 04:59:35;;;;;;;5.35;4.55;;;15.30;37.30;14.40;102119.00;;;;5050387;28;20486;-73
2022/03/06 05:02:21;;;;;;;5.57;4.75;;;15.30;37.20;14.40;102132.00;;;;5044378;28;20041;-73
2022/03/06 05:05:07;;;;;;;5.20;4.50;;;15.30;37.30;14.40;102122.00;;;;5060056;28;20414;-73
2022/03/06 05:07:53;;;;;;;5.30;4.75;;;15.20;37.20;14.40;102127.00;;;;5056622;28;20039;-73
2022/03/06 05:10:39;;;;;;;6.05;4.80;;;15.20;37.20;14.40;102126.00;;;;5061033;28;20091;-73
2022/03/06 05:13:25;;;;;;;5.63;4.70;;;15.20;37.20;14.40;102122.00;;;;5048554;28;20045;-73
2022/03/06 05:16:11;;;;;;;5.18;4.63;;;15.20;37.20;14.30;102122.00;;;;5058061;28;20040;-73
2022/03/06 05:18:57;;;;;;;5.38;4.85;;;15.20;37.20;14.40;102125.00;;;;5062379;28;20043;-73
2022/03/06 05:21:44;;;;;;;5.22;4.68;;;15.20;37.20;14.40;102127.00;;;;5056094;28;20037;-73
2022/03/06 05:24:30;;;;;;;5.95;4.55;;;15.20;37.20;14.40;102134.00;;;;5063634;28;20055;-73
2022/03/06 05:27:16;;;;;;;6.15;4.47;;;15.20;37.20;14.40;102133.00;;;;5055154;28;20462;-73
2022/03/06 05:30:04;;;;;;;5.68;5.07;;;15.20;37.20;14.40;102130.00;;;;5060556;28;20037;-73
2022/03/06 05:32:51;;;;;;;5.00;4.50;;;15.20;37.20;14.40;102135.00;;;;5055946;28;20037;-74
2022/03/06 05:35:37;;;;;;;5.40;4.20;;;15.20;37.20;14.40;102135.00;;;;5064223;28;20045;-73
2022/03/06 05:38:23;;;;;;;5.15;4.22;;;15.20;37.20;14.40;102132.00;;;;5067364;28;20055;-73
2022/03/06 05:41:09;;;;;;;6.00;4.70;;;15.20;37.20;14.40;102134.00;;;;5056077;28;20052;-73
2022/03/06 05:43:55;;;;;;;4.93;4.43;;;15.20;37.30;14.40;102147.00;;;;5056186;28;20444;-73
2022/03/06 05:46:41;;;;;;;4.95;4.45;;;15.20;37.30;14.30;102147.00;;;;5059579;28;20052;-73
2022/03/06 05:49:27;;;;;;;5.25;4.57;;;15.20;37.40;14.30;102142.00;;;;5064965;28;20040;-73
2022/03/06 05:52:13;;;;;;;6.43;4.93;;;15.20;37.40;14.30;102156.00;;;;5061171;28;20041;-73
2022/03/06 05:54:59;;;;;;;6.13;4.20;;;15.20;37.40;14.30;102161.00;;;;5048329;28;20044;-73
2022/03/06 05:57:48;;;;;;;4.90;4.40;;;15.20;37.40;14.40;102169.00;;;;5061202;28;20055;-73
2022/03/06 06:00:34;;;;;;;4.93;4.28;;;15.20;37.40;14.30;102158.00;;;;5055678;28;20040;-73
2022/03/06 06:03:20;;;;;;;6.20;4.60;;;15.20;37.40;14.30;102168.00;;;;5062612;28;20047;-73
2022/03/06 06:06:06;;;;;;;5.80;4.68;;;15.20;37.40;14.30;102164.00;;;;5060297;28;20040;-73
2022/03/06 06:08:53;;;;;;;5.10;4.55;;;15.30;37.40;14.30;102174.00;;;;5059385;28;20044;-73
2022/03/06 06:11:39;;;;;;;5.32;4.57;;;15.20;37.40;14.30;102181.00;;;;5041222;28;20404;-73
2022/03/06 06:14:25;;;;;;;6.47;4.57;;;15.20;37.40;14.30;102182.00;;;;5058827;28;20044;-73
2022/03/06 06:17:11;;;;;;;6.38;4.80;;;15.20;37.40;14.30;102179.00;;;;5054993;28;20037;-73
2022/03/06 06:20:00;;;;;;;6.65;4.75;;;15.20;37.30;14.30;102191.00;;;;5059817;28;20041;-73
2022/03/06 06:22:46;;;;;;;6.03;4.45;;;15.20;37.30;14.30;102190.00;;;;5058085;28;20090;-74
2022/03/06 06:25:32;;;;;;;5.85;4.47;;;15.20;37.30;14.30;102188.00;;;;5059645;28;20124;-73
2022/03/06 06:28:18;;;;;;;5.88;4.43;;;15.20;37.40;14.30;102191.00;;;;5061849;28;20051;-73
2022/03/06 06:31:05;;;;;;;4.63;4.15;;;15.20;37.40;14.30;102200.00;;;;5062183;28;20094;-73
2022/03/06 06:33:52;;;;;;;5.50;4.32;;;15.20;37.40;14.30;102207.00;;;;5051025;28;20497;-73
2022/03/06 06:36:38;;;;;;;4.80;4.20;;;15.20;37.40;14.30;102212.00;;;;5059270;28;20044;-73
2022/03/06 06:39:26;;;;;;;5.32;4.43;;;15.20;38.10;14.30;102210.00;;;;5063412;28;20052;-73
2022/03/06 06:42:12;;;;;;;;;;;15.20;37.40;14.30;102213.00;;;;5043892;28;20051;-74
2022/03/06 06:44:58;;;;;;;4.53;4.10;;;15.20;37.40;14.30;102214.00;;;;5058883;28;19931;-73
2022/03/06 06:47:44;;;;;;;5.70;4.57;;;15.20;37.30;14.30;102220.00;;;;5063584;28;20509;-73
2022/03/06 06:50:30;;;;;;;6.47;4.72;;;15.30;37.40;14.30;102218.00;;;;5064879;28;20048;-73
2022/03/06 06:53:16;;;;;;;4.85;4.20;;;15.20;37.40;14.30;102230.00;;;;5060790;28;20071;-73
2022/03/06 06:56:02;;;;;;;5.57;4.80;;;15.20;37.40;14.30;102235.00;;;;5054114;28;20041;-74
2022/03/06 06:58:49;;;;;;;6.00;4.40;;;15.20;37.40;14.30;102235.00;;;;5060650;28;20041;-74
2022/03/06 07:01:35;;;;;;;6.13;4.38;;;15.20;37.50;14.30;102224.00;;;;5044278;28;20103;-74
2022/03/06 07:04:21;;;;;;;6.28;4.80;;;15.20;37.50;14.30;102238.00;;;;5043870;28;20417;-74
2022/03/06 07:07:07;;;;;;;6.00;4.53;;;15.20;37.50;14.30;102229.00;;;;5058552;28;20041;-74
2022/03/06 07:09:53;;;;;;;4.93;4.30;;;15.20;37.50;14.30;102236.00;;;;5050716;28;20097;-74
2022/03/06 07:12:47;;;;;;;6.03;4.45;;;15.20;37.50;14.30;102239.00;;;;5046395;28;20471;-74
2022/03/06 07:15:33;;;;;;;5.43;4.38;;;15.20;37.60;14.30;102243.00;;;;5062829;28;20101;-74
2022/03/06 07:18:19;;;;;;;6.90;4.45;;;15.20;37.60;14.30;102235.00;;;;5059654;28;20055;-74
2022/03/06 07:21:06;;;;;;;6.30;4.63;;;15.20;37.60;14.30;102243.00;;;;5056830;28;20466;-73
2022/03/06 07:23:52;;;;;;;6.63;4.72;;;15.20;37.60;14.30;102240.00;;;;5062037;28;20095;-74
2022/03/06 07:26:38;;;;;;;5.07;4.20;;;15.20;37.70;14.30;102239.00;;;;5045798;28;20094;-73
2022/03/06 07:29:24;;;;;;;5.60;4.35;;;15.20;37.70;14.30;102243.00;;;;5049315;28;20037;-74
2022/03/06 07:32:10;;;;;;;5.95;4.40;;;15.20;37.70;14.30;102245.00;;;;5063137;28;20045;-74
2022/03/06 07:34:56;;;;;;;4.93;4.40;;;15.20;37.80;14.30;102242.00;;;;5059443;28;20123;-74
2022/03/06 07:37:42;;;;;;;5.78;4.32;;;15.20;37.80;14.30;102258.00;;;;5069006;28;20032;-74
2022/03/06 07:40:28;;;;;;;5.13;3.97;;;15.20;37.80;14.30;102267.00;;;;5049141;28;20398;-73
2022/03/06 07:43:17;;;;;;;6.05;4.88;;;15.20;37.90;14.30;102272.00;;;;5062850;28;20033;-74
2022/03/06 07:46:03;;;;;;;5.68;4.47;;;15.10;37.90;14.30;102276.00;;;;5053381;28;20055;-73
2022/03/06 07:48:49;;;;;;;6.93;4.50;;;15.20;37.90;14.30;102278.00;;;;5057899;28;20033;-74
2022/03/06 07:51:35;;;;;;;6.32;4.63;;;15.20;37.90;14.30;102273.00;;;;5049099;28;20052;-74
2022/03/06 07:54:21;;;;;;;5.78;4.80;;;15.20;37.90;14.30;102283.00;;;;5060600;28;20041;-74
2022/03/06 07:57:07;;;;;;;6.03;4.68;;;15.20;37.90;14.30;102283.00;;;;5050011;28;20044;-74
2022/03/06 07:59:53;;;;;;;10.68;4.22;;;15.20;37.90;14.30;102296.00;;;;5044529;28;20048;-73
2022/03/06 08:02:39;;;;;;;5.35;4.60;;;15.20;37.90;14.30;102301.00;;;;5061825;28;20040;-74
2022/03/06 08:05:25;;;;;;;5.35;4.10;;;15.20;37.90;14.30;102299.00;;;;5060399;28;20068;-74
2022/03/06 08:08:11;;;;;;;6.97;4.97;;;15.20;37.90;14.30;102296.00;;;;5061037;28;20504;-74
2022/03/06 08:10:57;;;;;;;5.05;4.47;;;15.20;37.90;14.30;102306.00;;;;5046766;28;20045;-73
2022/03/06 08:13:44;;;;;;;5.78;4.00;;;15.20;38.00;14.30;102300.00;;;;5045162;28;20493;-74
2022/03/06 08:16:30;;;;;;;5.43;4.63;;;15.20;38.00;14.30;102307.00;;;;5046707;28;20126;-73
2022/03/06 08:19:16;;;;;;;6.68;5.18;;;15.20;38.00;14.30;102310.00;;;;5063000;28;20048;-73
2022/03/06 08:22:02;;;;;;;6.00;4.28;;;15.20;38.10;14.30;102308.00;;;;5055903;28;20048;-73
2022/03/06 08:24:48;;;;;;;5.20;4.22;;;15.20;38.10;14.30;102314.00;;;;5062070;28;20040;-74
2022/03/06 08:27:34;;;;;;;5.80;4.28;;;15.20;38.10;14.30;102308.00;;;;5063621;28;20048;-74
2022/03/06 08:30:21;;;;;;;6.30;4.40;;;15.20;38.20;14.30;102322.00;;;;5060400;28;20045;-74
2022/03/06 08:33:07;;;;;;;8.40;5.15;;;15.20;38.20;14.30;102318.00;;;;5062490;28;20041;-74
2022/03/06 08:35:53;;;;;;;6.30;4.50;;;15.20;38.20;14.30;102318.00;;;;5065008;28;20032;-73
2022/03/06 08:38:39;;;;;;;7.13;4.18;;;15.20;38.20;14.30;102316.00;;;;5061290;28;20033;-74
2022/03/06 08:41:25;;;;;;;6.80;4.53;;;15.20;38.90;14.30;102327.00;;;;5061274;28;20048;-74
2022/03/06 08:44:11;;;;;;;7.18;4.00;;;15.20;38.20;14.30;102320.00;;;;5061254;28;20436;-74
2022/03/06 08:46:57;;;;;;;6.13;4.13;;;15.20;38.30;14.30;102328.00;;;;5061885;28;20398;-74
2022/03/06 08:49:43;;;;;;;11.00;4.07;;;15.20;38.30;14.30;102323.00;;;;5059408;28;20094;-74
2022/03/06 08:52:29;;;;;;;8.80;3.85;;;15.20;38.30;14.30;102328.00;;;;5064063;28;20501;-74
2022/03/06 08:55:15;;;;;;;7.85;3.67;;;15.20;38.30;14.30;102318.00;;;;5058367;28;20105;-74
2022/03/06 08:58:04;;;;;;;5.28;4.03;;;15.30;38.40;14.30;102327.00;;;;5065104;28;20044;-73
2022/03/06 09:00:50;;;;;;;5.00;3.92;;;15.30;38.40;14.30;102335.00;;;;5046399;28;20491;-73
2022/03/06 09:03:36;;;;;;;6.72;3.95;;;15.20;38.30;14.30;102325.00;;;;5060488;28;20056;-74
2022/03/06 09:06:22;;;;;;;4.68;3.92;;;15.30;38.50;14.30;102329.00;;;;5059703;28;20482;-74
2022/03/06 09:09:08;;;;;;;6.43;4.18;;;15.30;38.40;14.30;102335.00;;;;5053619;28;20090;-74
2022/03/06 09:11:54;;;;;;;7.75;4.97;;;15.30;38.50;14.30;102339.00;;;;5063668;28;20090;-74
2022/03/06 09:14:40;;;;;;;13.57;4.50;;;15.30;38.50;14.30;102330.00;;;;5063163;28;20119;-74
2022/03/06 09:17:32;;;;;;;6.70;4.03;;;15.30;38.50;14.30;102339.00;;;;5061070;28;20850;-74
2022/03/06 09:20:19;;;;;;;8.45;4.55;;;15.30;38.60;14.30;102335.00;;;;5048489;28;20055;-74
2022/03/06 09:23:07;;;;;;;7.85;4.38;;;15.30;38.60;14.30;102336.00;;;;5045137;28;20075;-74
2022/03/06 09:25:53;;;;;;;6.90;4.10;;;15.20;38.60;14.40;102335.00;;;;5040479;28;20044;-74
2022/03/06 09:28:39;;;;;;;8.45;4.18;;;15.30;38.80;14.40;102339.00;;;;5066957;28;20033;-74
2022/03/06 09:31:25;;;;;;;6.85;3.85;;;15.30;38.90;14.40;102335.00;;;;5064342;28;20044;-74
2022/03/06 09:34:11;;;;;;;20.08;5.20;;;15.40;39.00;14.40;102341.00;;;;5062173;28;20041;-77
2022/03/06 09:36:57;;;;;;;24.40;6.43;;;15.40;39.00;14.50;102344.00;;;;5049918;28;20044;-77
2022/03/06 09:39:43;;;;;;;14.63;5.00;;;15.40;39.10;14.50;102344.00;;;;5055961;28;20033;-75
2022/03/06 09:42:29;;;;;;;13.95;4.40;;;15.30;39.10;14.50;102342.00;;;;5059959;28;20151;-73
2022/03/06 09:45:16;;;;;;;17.00;3.97;;;15.40;39.20;14.60;102343.00;;;;5039453;28;20052;-75
2022/03/06 09:48:03;;;;;;;17.20;4.00;;;15.50;39.20;14.60;102338.00;;;;5057858;28;20041;-75
2022/03/06 09:50:49;;;;;;;10.95;4.55;;;15.50;39.20;14.60;102337.00;;;;5046759;28;20041;-75
2022/03/06 09:53:35;;;;;;;10.27;3.95;;;15.50;39.20;14.60;102330.00;;;;5046541;28;20102;-75
2022/03/06 09:56:21;;;;;;;8.93;3.58;;;15.50;39.30;14.60;102340.00;;;;5062728;28;20483;-77
2022/03/06 09:59:08;;;;;;;11.90;4.57;;;15.60;40.00;14.60;102336.00;;;;5057614;28;20045;-74
2022/03/06 10:01:54;;;;;;;15.45;4.25;;;15.60;39.30;14.70;102337.00;;;;5055215;28;20305;-76
2022/03/06 10:04:40;;;;;;;9.57;3.70;;;15.60;39.30;14.70;102328.00;;;;5027080;28;20040;-76
2022/03/06 10:07:26;;;;;;;7.38;3.50;;;15.60;39.30;14.70;102333.00;;;;5043097;28;20033;-76
2022/03/06 10:10:12;;;;;;;6.55;3.13;;;15.70;39.40;14.70;102331.00;;;;5048983;28;20479;-76
2022/03/06 10:12:58;;;;;;;14.98;3.45;;;15.70;39.30;14.70;102331.00;;;;5029144;28;20605;-76
2022/03/06 10:16:22;;;;;;;12.48;3.17;;;15.70;39.40;14.70;102330.00;;;;5062387;28;20044;-76
2022/03/06 10:19:08;;;;;;;11.95;3.22;;;15.70;39.40;14.70;102328.00;;;;5058682;28;20052;-76
2022/03/06 10:21:54;;;;;;;7.90;3.20;;;15.70;39.40;14.70;102328.00;;;;5072986;28;20041;-76
2022/03/06 10:24:50;;;;;;;4.00;2.72;;;15.70;39.40;14.70;102322.00;;;;5065642;28;20062;-76
2022/03/06 10:27:57;;;;;;;6.85;3.15;;;15.80;40.20;14.70;102330.00;;;;5064323;28;20046;-76
2022/03/06 10:30:43;;;;;;;7.10;3.17;;;15.70;39.50;14.70;102338.00;;;;5073938;28;20032;-76
2022/03/06 10:33:29;;;;;;;7.97;2.63;;;15.70;39.40;14.70;102339.00;;;;5061855;28;20041;-75
2022/03/06 10:36:15;;;;;;;4.72;2.70;;;15.80;39.50;14.80;102328.00;;;;5052379;28;20036;-76
2022/03/06 10:39:15;;;;;;;9.30;3.53;;;15.80;39.50;14.80;102332.00;;;;5069353;28;20055;-76
2022/03/06 10:42:01;;;;;;;9.25;2.83;;;15.80;39.50;14.80;102341.00;;;;5065685;28;20433;-75
2022/03/06 10:44:48;;;;;;;6.38;2.65;;;15.80;39.50;14.80;102344.00;;;;5048739;28;20154;-75
2022/03/06 10:47:47;;;;;;;9.30;3.00;;;15.80;39.50;14.80;102340.00;;;;5065072;28;20037;-75
2022/03/06 10:50:33;;;;;;;6.10;2.72;;;15.80;39.70;14.80;102334.00;;;;5061907;28;20037;-75
2022/03/06 10:53:23;;;;;;;4.97;2.80;;;15.80;39.50;14.80;102336.00;;;;5048855;28;20502;-75
2022/03/06 10:56:12;;;;;;;5.35;2.70;;;15.70;39.60;14.80;102332.00;;;;5059030;28;20052;-76
2022/03/06 10:58:58;;;;;;;5.00;2.63;;;15.80;39.50;14.90;102342.00;;;;5059761;28;20063;-74
2022/03/06 11:01:48;;;;;;;3.58;2.50;;;15.80;39.60;14.90;102338.00;;;;5045539;28;20042;-75
2022/03/06 11:04:34;;;;;;;4.15;2.20;;;15.90;39.60;14.90;102343.00;;;;5058371;28;20478;-75
2022/03/06 11:07:21;;;;;;;6.40;2.70;;;15.90;39.50;14.90;102343.00;;;;5039413;28;20029;-75
2022/03/06 11:10:08;;;;;;;7.65;2.60;;;15.90;39.60;14.90;102334.00;;;;5030211;28;20037;-75
2022/03/06 11:12:54;;;;;;;3.13;2.35;;;15.90;39.60;14.90;102326.00;;;;5071903;28;20604;-75
2022/03/06 11:15:41;;;;;;;4.20;2.15;;;15.90;39.60;14.90;102338.00;;;;5042429;28;20044;-75
2022/03/06 11:18:27;;;;;;;5.10;2.50;;;15.90;39.50;14.90;102332.00;;;;5039012;28;20076;-75
2022/03/06 11:21:13;;;;;;;5.00;2.30;;;15.90;39.50;14.90;102328.00;;;;5054595;28;20099;-74
2022/03/06 11:24:01;;;;;;;4.00;2.30;;;15.90;39.50;14.90;102326.00;;;;5047007;28;20090;-75
2022/03/06 11:27:01;;;;;;;4.47;2.55;;;15.90;39.50;14.90;102318.00;;;;5043303;28;20036;-75
2022/03/06 11:30:20;;;;;;;9.23;2.70;;;16.00;39.50;14.90;102323.00;;;;5047846;28;20045;-75
2022/03/06 11:33:09;;;;;;;8.35;2.85;;;16.00;39.40;14.90;102328.00;;;;5044018;28;20051;-75
2022/03/06 11:35:56;;;;;;;3.65;2.25;;;16.00;39.40;15.00;102327.00;;;;5045951;28;20046;-75
2022/03/06 11:38:45;;;;;;;2.42;2.13;;;16.00;39.40;15.00;102329.00;;;;5037717;28;20044;-76
2022/03/06 11:41:36;;;;;;;7.25;2.80;;;16.00;39.20;15.00;102329.00;;;;5052428;28;20094;-75
2022/03/06 11:44:35;;;;;;;6.93;2.38;;;16.00;39.10;15.00;102332.00;;;;5061687;28;20080;-76
2022/03/06 11:47:38;;;;;;;2.78;2.10;;;16.00;39.10;15.00;102325.00;;;;5047543;28;20064;-75
2022/03/06 11:50:24;;;;;;;4.53;2.30;;;16.00;39.00;15.00;102325.00;;;;5055263;28;20041;-74
2022/03/06 11:54:09;;;;;;;3.38;2.33;;;16.00;38.90;15.00;102319.00;;;;5055214;28;20045;-74
2022/03/06 11:56:56;;;;;;;3.85;2.22;;;16.00;38.90;15.00;102323.00;;;;5060086;28;20121;-74
2022/03/06 11:59:44;;;;;;;5.88;2.67;;;16.00;38.80;15.00;102314.00;;;;5055054;28;20037;-74
2022/03/06 12:02:30;;;;;;;3.28;2.30;;;16.10;38.90;15.00;102312.00;;;;5071431;28;20044;-81
2022/03/06 12:05:16;;;;;;;2.88;2.08;;;16.00;38.80;15.00;102310.00;;;;5047968;28;20048;-75
2022/03/06 12:08:03;;;;;;;4.07;2.00;;;16.00;38.90;15.00;102311.00;;;;5060357;28;20044;-76
2022/03/06 12:10:49;;;;;;;4.60;2.20;;;16.00;38.90;15.00;102304.00;;;;5059315;28;20082;-76
2022/03/06 12:13:35;;;;;;;3.33;2.10;;;16.20;39.10;15.00;102303.00;;;;5053709;28;20509;-76